createdAt,value
2022-08-04T00:00:45.092Z,19.49
2022-08-04T00:01:45.155Z,19.50
2022-08-04T00:02:45.115Z,19.49
2022-08-04T00:03:45.111Z,19.50
2022-08-04T00:04:45.146Z,19.48
2022-08-04T00:05:45.139Z,19.49
2022-08-04T00:06:45.181Z,19.47
2022-08-04T00:07:45.383Z,19.46
2022-08-04T00:08:45.202Z,19.44
2022-08-04T00:09:45.186Z,19.41
2022-08-04T00:10:45.201Z,19.39
2022-08-04T00:11:45.240Z,19.37
2022-08-04T00:12:45.332Z,19.35
2022-08-04T00:13:54.244Z,19.33
2022-08-04T00:14:45.246Z,19.30
2022-08-04T00:15:45.238Z,19.29
2022-08-04T00:16:45.271Z,19.27
2022-08-04T00:17:45.281Z,19.24
2022-08-04T00:18:45.285Z,19.21
2022-08-04T00:19:45.240Z,19.17
2022-08-04T00:20:45.262Z,19.17
2022-08-04T00:21:45.279Z,19.13
2022-08-04T00:22:45.263Z,19.12
2022-08-04T00:24:11.426Z,19.10
2022-08-04T00:24:45.283Z,19.09
2022-08-04T00:25:45.252Z,19.07
2022-08-04T00:26:45.255Z,19.06
2022-08-04T00:27:45.260Z,19.04
2022-08-04T00:28:45.310Z,19.04
2022-08-04T00:29:45.267Z,19.03
2022-08-04T00:30:45.247Z,19.02
2022-08-04T00:31:54.823Z,19.01
2022-08-04T00:32:45.282Z,19.00
2022-08-04T00:33:45.288Z,18.98
2022-08-04T00:34:45.311Z,18.97
2022-08-04T00:35:45.282Z,18.97
2022-08-04T00:36:45.279Z,18.96
2022-08-04T00:37:45.294Z,18.94
2022-08-04T00:38:45.298Z,18.94
2022-08-04T00:39:45.286Z,18.94
2022-08-04T00:40:45.290Z,18.93
2022-08-04T00:41:56.489Z,18.92
2022-08-04T00:42:58.149Z,18.91
2022-08-04T00:43:45.281Z,18.92
2022-08-04T00:44:45.322Z,18.91
2022-08-04T00:46:10.708Z,18.91
2022-08-04T00:46:45.324Z,18.91
2022-08-04T00:47:45.337Z,18.90
2022-08-04T00:48:45.289Z,18.90
2022-08-04T00:49:45.291Z,18.90
2022-08-04T00:50:45.292Z,18.91
2022-08-04T00:51:45.282Z,18.91
2022-08-04T00:52:45.329Z,18.90
2022-08-04T00:53:49.661Z,18.89
2022-08-04T00:54:45.309Z,18.89
2022-08-04T00:55:45.312Z,18.86
2022-08-04T00:56:45.290Z,18.86
2022-08-04T00:57:45.334Z,18.84
2022-08-04T00:58:45.340Z,18.81
2022-08-04T00:59:45.348Z,18.81
2022-08-04T01:00:45.324Z,18.78
2022-08-04T01:01:45.366Z,18.77
2022-08-04T01:02:45.314Z,18.75
2022-08-04T01:03:45.316Z,18.74
2022-08-04T01:04:45.347Z,18.74
2022-08-04T01:05:45.333Z,18.72
2022-08-04T01:06:56.067Z,18.73
2022-08-04T01:07:45.295Z,18.71
2022-08-04T01:08:45.327Z,18.70
2022-08-04T01:09:45.354Z,18.68
2022-08-04T01:10:45.346Z,18.68
2022-08-04T01:11:56.490Z,18.67
2022-08-04T01:12:45.323Z,18.66
2022-08-04T01:13:45.326Z,18.65
2022-08-04T01:14:45.312Z,18.64
2022-08-04T01:15:59.547Z,18.61
2022-08-04T01:16:45.346Z,18.59
2022-08-04T01:17:45.306Z,18.57
2022-08-04T01:18:45.302Z,18.56
2022-08-04T01:19:45.315Z,18.54
2022-08-04T01:20:45.342Z,18.52
2022-08-04T01:21:45.370Z,18.51
2022-08-04T01:22:45.326Z,18.49
2022-08-04T01:23:45.370Z,18.49
2022-08-04T01:24:45.345Z,18.49
2022-08-04T01:25:45.325Z,18.49
2022-08-04T01:26:57.467Z,18.49
2022-08-04T01:27:45.356Z,18.50
2022-08-04T01:28:45.376Z,18.50
2022-08-04T01:29:47.434Z,18.49
2022-08-04T01:30:45.372Z,18.47
2022-08-04T01:31:45.333Z,18.46
2022-08-04T01:32:45.347Z,18.45
2022-08-04T01:33:58.498Z,18.44
2022-08-04T01:34:45.322Z,18.44
2022-08-04T01:35:47.911Z,18.42
2022-08-04T01:36:45.329Z,18.40
2022-08-04T01:37:45.376Z,18.38
2022-08-04T01:38:45.373Z,18.37
2022-08-04T01:39:45.343Z,18.37
2022-08-04T01:40:45.349Z,18.37
2022-08-04T01:41:58.028Z,18.37
2022-08-04T01:42:45.339Z,18.37
2022-08-04T01:43:45.348Z,18.36
2022-08-04T01:44:45.344Z,18.36
2022-08-04T01:45:45.346Z,18.34
2022-08-04T01:46:45.343Z,18.33
2022-08-04T01:47:45.359Z,18.32
2022-08-04T01:48:45.354Z,18.31
2022-08-04T01:49:45.333Z,18.28
2022-08-04T01:50:45.394Z,18.29
2022-08-04T01:51:45.391Z,18.26
2022-08-04T01:52:50.312Z,18.27
2022-08-04T01:53:45.363Z,18.26
2022-08-04T01:54:45.352Z,18.25
2022-08-04T01:55:54.168Z,18.24
2022-08-04T01:56:45.366Z,18.23
2022-08-04T01:57:45.373Z,18.21
2022-08-04T01:58:45.366Z,18.20
2022-08-04T01:59:45.366Z,18.19
2022-08-04T02:00:45.377Z,18.16
2022-08-04T02:01:45.487Z,18.16
2022-08-04T02:02:45.451Z,18.14
2022-08-04T02:04:18.900Z,18.13
2022-08-04T02:04:45.345Z,18.12
2022-08-04T02:06:03.000Z,18.12
2022-08-04T02:06:45.362Z,18.12
2022-08-04T02:07:45.395Z,18.12
2022-08-04T02:08:45.371Z,18.12
2022-08-04T02:09:54.350Z,18.13
2022-08-04T02:10:45.382Z,18.12
2022-08-04T02:11:45.380Z,18.12
2022-08-04T02:12:45.405Z,18.12
2022-08-04T02:13:45.372Z,18.10
2022-08-04T02:14:45.412Z,18.09
2022-08-04T02:15:45.382Z,18.08
2022-08-04T02:16:45.402Z,18.06
2022-08-04T02:17:45.395Z,18.06
2022-08-04T02:18:45.381Z,18.03
2022-08-04T02:19:45.406Z,18.04
2022-08-04T02:20:45.432Z,18.01
2022-08-04T02:21:45.391Z,18.00
2022-08-04T02:22:45.395Z,17.97
2022-08-04T02:23:45.403Z,17.95
2022-08-04T02:24:45.412Z,17.93
2022-08-04T02:25:45.395Z,17.92
2022-08-04T02:26:45.399Z,17.90
2022-08-04T02:27:59.297Z,17.90
2022-08-04T02:28:45.427Z,17.90
2022-08-04T02:29:45.441Z,17.89
2022-08-04T02:30:45.401Z,17.88
2022-08-04T02:31:45.397Z,17.88
2022-08-04T02:32:45.422Z,17.87
2022-08-04T02:33:45.418Z,17.87
2022-08-04T02:34:45.423Z,17.86
2022-08-04T02:35:45.397Z,17.86
2022-08-04T02:36:45.421Z,17.83
2022-08-04T02:37:45.388Z,17.82
2022-08-04T02:38:45.415Z,17.82
2022-08-04T02:39:48.851Z,17.79
2022-08-04T02:40:45.408Z,17.78
2022-08-04T02:41:45.416Z,17.77
2022-08-04T02:42:45.421Z,17.77
2022-08-04T02:43:51.386Z,17.78
2022-08-04T02:44:45.408Z,17.76
2022-08-04T02:45:45.422Z,17.75
2022-08-04T02:46:45.441Z,17.75
2022-08-04T02:48:28.606Z,17.76
2022-08-04T02:48:45.417Z,17.75
2022-08-04T02:49:45.427Z,17.74
2022-08-04T02:50:45.425Z,17.73
2022-08-04T02:51:45.468Z,17.73
2022-08-04T02:52:45.434Z,17.71
2022-08-04T02:53:45.436Z,17.70
2022-08-04T02:54:45.439Z,17.70
2022-08-04T02:55:50.870Z,17.69
2022-08-04T02:56:45.436Z,17.69
2022-08-04T02:57:45.450Z,17.67
2022-08-04T02:58:45.414Z,17.65
2022-08-04T02:59:45.437Z,17.64
2022-08-04T03:00:45.490Z,17.63
2022-08-04T03:01:57.477Z,17.63
2022-08-04T03:02:45.449Z,17.63
2022-08-04T03:03:45.445Z,17.64
2022-08-04T03:04:45.461Z,17.64
2022-08-04T03:05:54.171Z,17.63
2022-08-04T03:06:45.436Z,17.63
2022-08-04T03:07:45.478Z,17.62
2022-08-04T03:08:45.468Z,17.62
2022-08-04T03:09:45.455Z,17.61
2022-08-04T03:10:45.436Z,17.61
2022-08-04T03:11:45.455Z,17.60
2022-08-04T03:12:45.499Z,17.59
2022-08-04T03:13:45.444Z,17.58
2022-08-04T03:14:45.437Z,17.56
2022-08-04T03:15:45.489Z,17.56
2022-08-04T03:16:45.450Z,17.54
2022-08-04T03:17:52.848Z,17.52
2022-08-04T03:18:45.447Z,17.52
2022-08-04T03:19:45.461Z,17.50
2022-08-04T03:20:45.478Z,17.50
2022-08-04T03:21:45.459Z,17.49
2022-08-04T03:23:11.546Z,17.48
2022-08-04T03:23:45.453Z,17.48
2022-08-04T03:24:45.442Z,17.48
2022-08-04T03:25:56.522Z,17.46
2022-08-04T03:26:45.485Z,17.46
2022-08-04T03:27:45.472Z,17.45
2022-08-04T03:28:45.483Z,17.45
2022-08-04T03:29:45.503Z,17.45
2022-08-04T03:30:45.504Z,17.46
2022-08-04T03:31:45.485Z,17.48
2022-08-04T03:32:45.483Z,17.47
2022-08-04T03:33:45.484Z,17.47
2022-08-04T03:34:45.500Z,17.48
2022-08-04T03:35:45.479Z,17.47
2022-08-04T03:36:45.489Z,17.46
2022-08-04T03:37:45.504Z,17.46
2022-08-04T03:38:51.422Z,17.45
2022-08-04T03:39:45.515Z,17.45
2022-08-04T03:40:45.484Z,17.43
2022-08-04T03:41:56.091Z,17.42
2022-08-04T03:42:45.536Z,17.39
2022-08-04T03:43:57.217Z,17.38
2022-08-04T03:44:45.492Z,17.38
2022-08-04T03:45:45.488Z,17.37
2022-08-04T03:46:45.478Z,17.36
2022-08-04T03:47:45.512Z,17.35
2022-08-04T03:48:45.603Z,17.34
2022-08-04T03:49:45.480Z,17.32
2022-08-04T03:50:45.504Z,17.30
2022-08-04T03:51:45.497Z,17.30
2022-08-04T03:52:45.524Z,17.30
2022-08-04T03:53:45.484Z,17.30
2022-08-04T03:54:45.502Z,17.29
2022-08-04T03:55:45.491Z,17.29
2022-08-04T03:56:45.502Z,17.27
2022-08-04T03:57:45.518Z,17.28
2022-08-04T03:58:45.524Z,17.27
2022-08-04T03:59:48.802Z,17.26
2022-08-04T04:00:45.527Z,17.25
2022-08-04T04:02:02.510Z,17.24
2022-08-04T04:02:45.618Z,17.24
2022-08-04T04:03:45.518Z,17.23
2022-08-04T04:04:45.501Z,17.24
2022-08-04T04:05:58.889Z,17.23
2022-08-04T04:06:53.858Z,17.22
2022-08-04T04:07:55.862Z,17.22
2022-08-04T04:08:45.550Z,17.22
2022-08-04T04:09:56.986Z,17.20
2022-08-04T04:10:45.522Z,17.18
2022-08-04T04:11:56.743Z,17.20
2022-08-04T04:12:45.545Z,17.17
2022-08-04T04:13:45.523Z,17.17
2022-08-04T04:14:45.522Z,17.18
2022-08-04T04:15:49.818Z,17.18
2022-08-04T04:16:45.544Z,17.17
2022-08-04T04:17:45.555Z,17.17
2022-08-04T04:18:45.668Z,17.17
2022-08-04T04:19:45.526Z,17.16
2022-08-04T04:20:45.509Z,17.16
2022-08-04T04:21:45.514Z,17.16
2022-08-04T04:22:45.551Z,17.15
2022-08-04T04:23:45.541Z,17.14
2022-08-04T04:24:45.533Z,17.16
2022-08-04T04:25:45.503Z,17.15
2022-08-04T04:26:45.549Z,17.14
2022-08-04T04:27:45.565Z,17.16
2022-08-04T04:28:47.132Z,17.15
2022-08-04T04:29:45.508Z,17.15
2022-08-04T04:30:45.543Z,17.14
2022-08-04T04:31:45.537Z,17.16
2022-08-04T04:32:45.550Z,17.15
2022-08-04T04:33:45.555Z,17.16
2022-08-04T04:34:46.183Z,17.16
2022-08-04T04:35:45.535Z,17.16
2022-08-04T04:36:45.543Z,17.17
2022-08-04T04:37:48.145Z,17.18
2022-08-04T04:38:45.567Z,17.20
2022-08-04T04:39:45.544Z,17.21
2022-08-04T04:40:45.588Z,17.22
2022-08-04T04:41:45.563Z,17.23
2022-08-04T04:42:45.563Z,17.25
2022-08-04T04:43:50.752Z,17.25
2022-08-04T04:44:45.572Z,17.28
2022-08-04T04:45:45.561Z,17.29
2022-08-04T04:46:45.555Z,17.31
2022-08-04T04:48:08.135Z,17.32
2022-08-04T04:48:45.609Z,17.34
2022-08-04T04:49:45.600Z,17.37
2022-08-04T04:50:45.570Z,17.39
2022-08-04T04:51:45.585Z,17.41
2022-08-04T04:52:45.583Z,17.43
2022-08-04T04:53:45.564Z,17.46
2022-08-04T04:54:45.571Z,17.47
2022-08-04T04:55:48.128Z,17.47
2022-08-04T04:56:45.567Z,17.49
2022-08-04T04:57:54.370Z,17.50
2022-08-04T04:58:45.572Z,17.50
2022-08-04T04:59:45.594Z,17.52
2022-08-04T05:00:45.575Z,17.51
2022-08-04T05:01:45.572Z,17.53
2022-08-04T05:02:45.633Z,17.55
2022-08-04T05:03:45.594Z,17.58
2022-08-04T05:04:45.587Z,17.58
2022-08-04T05:05:45.604Z,17.61
2022-08-04T05:06:45.589Z,17.62
2022-08-04T05:07:45.579Z,17.64
2022-08-04T05:08:47.435Z,17.67
2022-08-04T05:09:45.625Z,17.67
2022-08-04T05:10:45.610Z,17.69
2022-08-04T05:11:45.598Z,17.72
2022-08-04T05:14:34.915Z,17.75
2022-08-04T05:14:36.653Z,17.73
2022-08-04T05:14:45.605Z,17.78
2022-08-04T05:15:45.637Z,17.78
2022-08-04T05:16:45.608Z,17.79
2022-08-04T05:17:45.636Z,17.80
2022-08-04T05:18:45.591Z,17.83
2022-08-04T05:19:46.335Z,17.85
2022-08-04T05:20:45.603Z,17.88
2022-08-04T05:21:45.617Z,17.92
2022-08-04T05:22:45.608Z,17.95
2022-08-04T05:23:45.599Z,18.00
2022-08-04T05:24:45.592Z,18.04
2022-08-04T05:25:58.644Z,18.08
2022-08-04T05:26:45.614Z,18.11
2022-08-04T05:27:45.608Z,18.16
2022-08-04T05:28:45.616Z,18.21
2022-08-04T05:29:45.600Z,18.26
2022-08-04T05:30:45.657Z,18.31
2022-08-04T05:31:45.645Z,18.37
2022-08-04T05:32:45.661Z,18.41
2022-08-04T05:33:45.616Z,18.46
2022-08-04T05:34:45.608Z,18.52
2022-08-04T05:36:16.402Z,18.56
2022-08-04T05:36:45.622Z,18.64
2022-08-04T05:37:45.620Z,18.70
2022-08-04T05:38:45.621Z,18.75
2022-08-04T05:39:47.173Z,18.80
2022-08-04T05:40:45.629Z,18.85
2022-08-04T05:41:54.973Z,18.91
2022-08-04T05:42:45.626Z,18.96
2022-08-04T05:43:45.630Z,19.01
2022-08-04T05:44:50.743Z,19.06
2022-08-04T05:45:45.615Z,19.11
2022-08-04T05:46:45.654Z,19.16
2022-08-04T05:47:45.641Z,19.21
2022-08-04T05:48:45.627Z,19.27
2022-08-04T05:49:45.635Z,19.34
2022-08-04T05:50:45.623Z,19.39
2022-08-04T05:51:45.663Z,19.46
2022-08-04T05:52:45.674Z,19.50
2022-08-04T05:53:45.640Z,19.55
2022-08-04T05:54:45.647Z,19.58
2022-08-04T05:55:57.557Z,19.61
2022-08-04T05:56:45.661Z,19.66
2022-08-04T05:57:45.660Z,19.71
2022-08-04T05:58:45.643Z,19.76
2022-08-04T05:59:45.670Z,19.79
2022-08-04T06:00:52.425Z,19.83
2022-08-04T06:01:56.545Z,19.90
2022-08-04T06:02:45.652Z,19.97
2022-08-04T06:03:45.653Z,20.00
2022-08-04T06:04:45.653Z,20.06
2022-08-04T06:05:45.671Z,20.11
2022-08-04T06:06:45.662Z,20.17
2022-08-04T06:08:11.838Z,20.23
2022-08-04T06:08:45.674Z,20.28
2022-08-04T06:09:45.651Z,20.35
2022-08-04T06:10:45.662Z,20.38
2022-08-04T06:12:03.145Z,20.43
2022-08-04T06:12:45.662Z,20.48
2022-08-04T06:13:50.014Z,20.54
2022-08-04T06:14:45.669Z,20.59
2022-08-04T06:15:46.189Z,20.65
2022-08-04T06:16:50.809Z,20.72
2022-08-04T06:19:56.064Z,20.77
2022-08-04T06:19:58.984Z,20.90
2022-08-04T06:19:59.046Z,20.85
2022-08-04T06:20:47.430Z,20.97
2022-08-04T06:21:45.698Z,21.04
2022-08-04T06:22:45.676Z,21.10
2022-08-04T06:23:53.189Z,21.14
2022-08-04T06:24:45.695Z,21.18
2022-08-04T06:25:45.683Z,21.24
2022-08-04T06:26:45.682Z,21.28
2022-08-04T06:27:45.674Z,21.31
2022-08-04T06:28:45.684Z,21.34
2022-08-04T06:29:51.202Z,21.37
2022-08-04T06:30:45.695Z,21.37
2022-08-04T06:32:27.409Z,21.39
2022-08-04T06:32:45.684Z,21.43
2022-08-04T06:33:54.411Z,21.46
2022-08-04T06:34:45.727Z,21.51
2022-08-04T06:35:45.692Z,21.55
2022-08-04T06:36:45.701Z,21.59
2022-08-04T06:37:45.867Z,21.65
2022-08-04T06:38:45.673Z,21.71
2022-08-04T06:39:45.806Z,21.80
2022-08-04T06:40:45.709Z,21.88
2022-08-04T06:41:57.394Z,21.97
2022-08-04T06:42:45.727Z,22.06
2022-08-04T06:43:45.695Z,22.14
2022-08-04T06:44:45.724Z,22.21
2022-08-04T06:45:45.715Z,22.28
2022-08-04T06:46:45.724Z,22.35
2022-08-04T06:47:45.731Z,22.46
2022-08-04T06:48:45.726Z,22.64
2022-08-04T06:51:24.663Z,22.86
2022-08-04T06:51:26.386Z,23.10
2022-08-04T06:51:49.382Z,23.36
2022-08-04T06:52:45.747Z,23.63
2022-08-04T06:53:45.730Z,23.88
2022-08-04T06:54:45.718Z,24.13
2022-08-04T06:55:45.718Z,24.37
2022-08-04T06:56:45.731Z,24.57
2022-08-04T06:57:45.761Z,24.79
2022-08-04T06:58:45.745Z,25.06
2022-08-04T06:59:45.740Z,25.27
2022-08-04T07:00:45.797Z,25.52
2022-08-04T07:01:45.818Z,25.76
2022-08-04T07:02:45.741Z,25.95
2022-08-04T07:03:45.743Z,26.13
2022-08-04T07:04:45.737Z,26.29
2022-08-04T07:05:45.733Z,26.41
2022-08-04T07:06:45.742Z,26.49
2022-08-04T07:07:56.576Z,26.59
2022-08-04T07:08:45.716Z,26.72
2022-08-04T07:09:45.719Z,26.87
2022-08-04T07:10:45.744Z,27.05
2022-08-04T07:11:45.751Z,27.19
2022-08-04T07:12:45.730Z,27.32
2022-08-04T07:13:45.748Z,27.35
2022-08-04T07:14:45.768Z,27.33
2022-08-04T07:15:45.730Z,27.26
2022-08-04T07:16:45.774Z,27.20
2022-08-04T07:17:45.770Z,27.11
2022-08-04T07:18:45.767Z,27.00
2022-08-04T07:19:45.753Z,26.95
2022-08-04T07:20:45.761Z,26.97
2022-08-04T07:22:24.387Z,27.02
2022-08-04T07:22:45.799Z,27.07
2022-08-04T07:23:45.747Z,27.10
2022-08-04T07:24:45.802Z,27.13
2022-08-04T07:25:59.954Z,27.18
2022-08-04T07:26:45.782Z,27.25
2022-08-04T07:27:48.439Z,27.28
2022-08-04T07:28:45.782Z,27.26
2022-08-04T07:29:45.771Z,27.22
2022-08-04T07:30:45.807Z,27.15
2022-08-04T07:31:45.775Z,27.13
2022-08-04T07:32:45.761Z,27.12
2022-08-04T07:33:45.781Z,27.12
2022-08-04T07:34:49.887Z,27.16
2022-08-04T07:36:04.858Z,27.19
2022-08-04T07:36:50.945Z,27.25
2022-08-04T07:37:45.782Z,27.29
2022-08-04T07:38:46.591Z,27.32
2022-08-04T07:39:48.423Z,27.34
2022-08-04T07:40:45.774Z,27.42
2022-08-04T07:41:48.877Z,27.41
2022-08-04T07:42:45.825Z,27.53
2022-08-04T07:43:45.791Z,27.83
2022-08-04T07:44:45.792Z,28.10
2022-08-04T07:45:45.805Z,28.36
2022-08-04T07:46:45.797Z,28.65
2022-08-04T07:48:05.155Z,28.99
2022-08-04T07:48:45.799Z,29.28
2022-08-04T07:49:56.132Z,29.60
2022-08-04T07:50:45.796Z,29.93
2022-08-04T07:51:45.803Z,30.28
2022-08-04T07:52:46.055Z,30.49
2022-08-04T07:53:55.076Z,30.69
2022-08-04T07:54:45.804Z,30.89
2022-08-04T07:55:45.788Z,31.07
2022-08-04T07:56:45.805Z,31.18
2022-08-04T07:57:45.941Z,31.24
2022-08-04T07:58:45.825Z,31.25
2022-08-04T07:59:49.682Z,31.19
2022-08-04T08:00:45.808Z,31.22
2022-08-04T08:01:45.839Z,31.26
2022-08-04T08:02:45.809Z,31.32
2022-08-04T08:03:45.925Z,31.33
2022-08-04T08:04:45.923Z,31.29
2022-08-04T08:06:16.952Z,31.29
2022-08-04T08:06:45.837Z,31.29
2022-08-04T08:07:50.924Z,31.23
2022-08-04T08:08:45.834Z,31.15
2022-08-04T08:09:45.817Z,31.13
2022-08-04T08:10:45.830Z,31.23
2022-08-04T08:12:36.051Z,31.29
2022-08-04T08:12:51.502Z,31.30
2022-08-04T08:13:45.812Z,31.43
2022-08-04T08:14:45.830Z,31.67
2022-08-04T08:15:45.879Z,32.01
2022-08-04T08:16:45.852Z,32.35
2022-08-04T08:17:58.988Z,32.59
2022-08-04T08:18:49.871Z,32.81
2022-08-04T08:19:45.858Z,33.07
2022-08-04T08:20:45.827Z,33.28
2022-08-04T08:21:59.670Z,33.42
2022-08-04T08:22:45.847Z,33.63
2022-08-04T08:23:45.877Z,33.87
2022-08-04T08:24:45.851Z,34.06
2022-08-04T08:25:45.861Z,34.18
2022-08-04T08:26:45.896Z,34.22
2022-08-04T08:27:56.154Z,34.23
2022-08-04T08:28:45.877Z,34.17
2022-08-04T08:29:45.858Z,34.17
2022-08-04T08:30:45.884Z,34.21
2022-08-04T08:31:57.320Z,34.25
2022-08-04T08:32:45.873Z,34.22
2022-08-04T08:33:45.856Z,34.16
2022-08-04T08:34:45.894Z,33.91
2022-08-04T08:35:53.238Z,33.73
2022-08-04T08:36:45.861Z,33.72
2022-08-04T08:37:45.858Z,33.75
2022-08-04T08:38:45.868Z,33.70
2022-08-04T08:39:46.000Z,33.71
2022-08-04T08:40:45.875Z,33.65
2022-08-04T08:41:45.884Z,33.55
2022-08-04T08:42:45.889Z,33.44
2022-08-04T08:44:04.929Z,33.34
2022-08-04T08:44:45.879Z,33.26
2022-08-04T08:45:45.871Z,33.18
2022-08-04T08:46:49.819Z,33.22
2022-08-04T08:48:04.620Z,33.40
2022-08-04T08:48:45.892Z,33.63
2022-08-04T08:50:01.581Z,33.87
2022-08-04T08:50:45.881Z,33.91
2022-08-04T08:51:47.662Z,33.77
2022-08-04T08:52:57.267Z,33.82
2022-08-04T08:53:45.893Z,33.89
2022-08-04T08:54:45.884Z,33.83
2022-08-04T08:55:45.901Z,33.78
2022-08-04T08:56:45.931Z,33.71
2022-08-04T08:57:59.919Z,33.57
2022-08-04T08:58:45.907Z,33.39
2022-08-04T08:59:45.877Z,33.13
2022-08-04T09:00:45.904Z,32.97
2022-08-04T09:01:45.964Z,32.92
2022-08-04T09:02:45.941Z,32.91
2022-08-04T09:03:45.926Z,32.92
2022-08-04T09:04:45.961Z,32.95
2022-08-04T09:05:45.916Z,33.01
2022-08-04T09:06:45.927Z,33.15
2022-08-04T09:07:45.920Z,33.35
2022-08-04T09:08:45.919Z,33.62
2022-08-04T09:09:45.914Z,33.66
2022-08-04T09:10:45.915Z,33.76
2022-08-04T09:11:45.954Z,33.90
2022-08-04T09:12:45.917Z,33.87
2022-08-04T09:13:45.957Z,33.77
2022-08-04T09:14:45.920Z,33.82
2022-08-04T09:15:46.750Z,33.88
2022-08-04T09:16:45.958Z,34.05
2022-08-04T09:17:45.947Z,34.13
2022-08-04T09:18:45.932Z,34.09
2022-08-04T09:19:45.958Z,34.08
2022-08-04T09:20:45.937Z,34.12
2022-08-04T09:21:45.961Z,34.23
2022-08-04T09:22:45.955Z,34.34
2022-08-04T09:23:45.946Z,34.43
2022-08-04T09:24:45.941Z,34.67
2022-08-04T09:25:45.955Z,34.90
2022-08-04T09:26:45.964Z,35.08
2022-08-04T09:27:45.978Z,35.26
2022-08-04T09:28:54.399Z,35.29
2022-08-04T09:29:45.973Z,35.42
2022-08-04T09:30:45.952Z,35.45
2022-08-04T09:31:52.930Z,35.48
2022-08-04T09:32:45.934Z,35.53
2022-08-04T09:33:46.229Z,35.62
2022-08-04T09:34:45.949Z,35.72
2022-08-04T09:35:45.962Z,35.81
2022-08-04T09:36:45.950Z,35.88
2022-08-04T09:37:46.657Z,35.99
2022-08-04T09:38:50.189Z,36.04
2022-08-04T09:39:46.005Z,36.15
2022-08-04T09:40:53.277Z,36.29
2022-08-04T09:41:49.615Z,36.42
2022-08-04T09:42:45.965Z,36.44
2022-08-04T09:43:59.235Z,36.48
2022-08-04T09:44:52.036Z,36.38
2022-08-04T09:45:45.960Z,36.29
2022-08-04T09:46:45.967Z,36.41
2022-08-04T09:47:46.015Z,36.49
2022-08-04T09:48:46.007Z,36.73
2022-08-04T09:49:45.966Z,36.97
2022-08-04T09:50:50.279Z,37.21
2022-08-04T09:51:57.934Z,37.33
2022-08-04T09:52:45.960Z,37.42
2022-08-04T09:53:45.982Z,37.44
2022-08-04T09:54:46.025Z,37.36
2022-08-04T09:55:54.360Z,37.28
2022-08-04T09:56:46.029Z,37.25
2022-08-04T09:57:46.029Z,37.33
2022-08-04T09:58:45.987Z,37.38
2022-08-04T09:59:45.985Z,37.39
2022-08-04T10:00:46.003Z,37.37
2022-08-04T10:01:45.993Z,37.22
2022-08-04T10:02:46.058Z,37.06
2022-08-04T10:03:45.999Z,37.02
2022-08-04T10:04:46.005Z,37.07
2022-08-04T10:05:46.004Z,37.10
2022-08-04T10:06:46.015Z,37.22
2022-08-04T10:08:04.840Z,37.39
2022-08-04T10:08:46.008Z,37.53
2022-08-04T10:09:46.028Z,37.70
2022-08-04T10:10:46.012Z,37.84
2022-08-04T10:11:55.631Z,38.08
2022-08-04T10:12:46.021Z,38.32
2022-08-04T10:13:46.015Z,38.55
2022-08-04T10:14:46.652Z,38.73
2022-08-04T10:15:46.019Z,38.81
2022-08-04T10:16:46.058Z,38.85
2022-08-04T10:17:52.309Z,38.94
2022-08-04T10:18:46.016Z,39.07
2022-08-04T10:19:46.005Z,39.17
2022-08-04T10:20:49.354Z,39.26
2022-08-04T10:21:50.741Z,39.22
2022-08-04T10:23:09.163Z,39.06
2022-08-04T10:23:56.522Z,38.88
2022-08-04T10:24:46.070Z,38.80
2022-08-04T10:26:06.115Z,38.78
2022-08-04T10:26:46.119Z,38.72
2022-08-04T10:27:46.037Z,38.72
2022-08-04T10:28:46.021Z,38.66
2022-08-04T10:29:46.047Z,38.43
2022-08-04T10:30:46.040Z,38.25
2022-08-04T10:31:46.053Z,38.22
2022-08-04T10:32:46.073Z,38.23
2022-08-04T10:33:46.061Z,38.20
2022-08-04T10:34:46.047Z,38.23
2022-08-04T10:35:46.065Z,38.30
2022-08-04T10:36:46.056Z,38.40
2022-08-04T10:38:00.152Z,38.34
2022-08-04T10:38:46.060Z,38.37
2022-08-04T10:39:46.062Z,38.59
2022-08-04T10:40:46.093Z,38.88
2022-08-04T10:41:46.062Z,39.21
2022-08-04T10:42:46.084Z,39.43
2022-08-04T10:43:46.076Z,39.54
2022-08-04T10:44:46.091Z,39.62
2022-08-04T10:45:46.067Z,39.61
2022-08-04T10:46:46.102Z,39.35
2022-08-04T10:47:52.444Z,39.08
2022-08-04T10:48:46.085Z,39.09
2022-08-04T10:49:46.063Z,38.96
2022-08-04T10:50:46.081Z,38.96
2022-08-04T10:51:58.514Z,39.08
2022-08-04T10:52:46.085Z,39.26
2022-08-04T10:53:46.077Z,39.40
2022-08-04T10:54:46.088Z,39.37
2022-08-04T10:56:07.110Z,39.35
2022-08-04T10:56:46.090Z,39.35
2022-08-04T10:57:46.085Z,39.36
2022-08-04T10:58:47.536Z,39.27
2022-08-04T10:59:46.188Z,38.99
2022-08-04T11:00:46.196Z,38.75
2022-08-04T11:02:01.589Z,38.70
2022-08-04T11:02:46.274Z,38.71
2022-08-04T11:03:46.176Z,38.76
2022-08-04T11:04:46.180Z,38.81
2022-08-04T11:05:46.194Z,38.87
2022-08-04T11:06:46.192Z,38.94
2022-08-04T11:07:46.341Z,39.08
2022-08-04T11:08:46.220Z,39.29
2022-08-04T11:09:46.231Z,39.37
2022-08-04T11:10:46.229Z,39.53
2022-08-04T11:12:01.216Z,39.83
2022-08-04T11:12:46.203Z,40.22
2022-08-04T11:13:47.192Z,40.64
2022-08-04T11:14:46.198Z,41.06
2022-08-04T11:15:46.219Z,41.46
2022-08-04T11:16:46.226Z,41.60
2022-08-04T11:17:46.202Z,41.83
2022-08-04T11:18:46.214Z,42.09
2022-08-04T11:19:50.074Z,42.35
2022-08-04T11:20:46.226Z,42.28
2022-08-04T11:21:46.262Z,42.34
2022-08-04T11:22:46.247Z,42.32
2022-08-04T11:23:46.224Z,42.24
2022-08-04T11:24:46.221Z,41.91
2022-08-04T11:25:49.745Z,40.71
2022-08-04T11:26:46.237Z,39.55
2022-08-04T11:27:46.227Z,39.31
2022-08-04T11:28:46.250Z,39.36
2022-08-04T11:29:46.226Z,39.30
2022-08-04T11:30:46.226Z,39.53
2022-08-04T11:31:49.778Z,39.64
2022-08-04T11:32:46.237Z,39.53
2022-08-04T11:33:46.224Z,39.09
2022-08-04T11:34:52.822Z,38.92
2022-08-04T11:35:46.234Z,39.06
2022-08-04T11:36:46.292Z,39.29
2022-08-04T11:37:46.247Z,39.49
2022-08-04T11:38:46.229Z,39.77
2022-08-04T11:39:46.546Z,40.01
2022-08-04T11:41:02.767Z,40.18
2022-08-04T11:41:46.267Z,40.50
2022-08-04T11:42:46.260Z,40.92
2022-08-04T11:43:56.197Z,40.75
2022-08-04T11:44:46.312Z,40.81
2022-08-04T11:45:46.256Z,41.10
2022-08-04T11:46:46.308Z,41.43
2022-08-04T11:47:46.308Z,41.79
2022-08-04T11:48:46.265Z,42.07
2022-08-04T11:49:56.694Z,42.38
2022-08-04T11:50:50.309Z,42.67
2022-08-04T11:51:46.266Z,42.91
2022-08-04T11:52:46.260Z,43.13
2022-08-04T11:53:46.279Z,43.35
2022-08-04T11:54:46.261Z,43.45
2022-08-04T11:56:06.908Z,43.59
2022-08-04T11:56:46.322Z,43.68
2022-08-04T11:57:46.308Z,43.71
2022-08-04T11:58:50.306Z,43.84
2022-08-04T11:59:46.304Z,43.79
2022-08-04T12:00:46.283Z,43.80
2022-08-04T12:01:46.390Z,43.93
2022-08-04T12:02:46.323Z,44.19
2022-08-04T12:03:46.291Z,44.47
2022-08-04T12:04:46.295Z,44.68
2022-08-04T12:05:46.279Z,44.82
2022-08-04T12:06:57.121Z,44.80
2022-08-04T12:07:46.589Z,44.92
2022-08-04T12:08:46.310Z,45.04
2022-08-04T12:09:46.291Z,45.17
2022-08-04T12:10:46.308Z,45.02
2022-08-04T12:11:46.312Z,45.01
2022-08-04T12:12:46.293Z,45.06
2022-08-04T12:13:46.302Z,45.21
2022-08-04T12:14:46.330Z,45.23
2022-08-04T12:15:46.314Z,45.07
2022-08-04T12:16:46.308Z,44.96
2022-08-04T12:17:53.129Z,44.95
2022-08-04T12:18:46.310Z,44.94
2022-08-04T12:20:02.415Z,44.53
2022-08-04T12:20:46.382Z,43.60
2022-08-04T12:21:53.130Z,42.80
2022-08-04T12:22:46.413Z,42.37
2022-08-04T12:23:46.397Z,42.04
2022-08-04T12:24:46.398Z,41.82
2022-08-04T12:25:46.424Z,41.47
2022-08-04T12:26:46.428Z,41.51
2022-08-04T12:27:46.468Z,41.31
2022-08-04T12:29:09.252Z,41.21
2022-08-04T12:30:54.106Z,41.20
2022-08-04T12:30:58.873Z,41.18
2022-08-04T12:31:46.857Z,41.28
2022-08-04T12:32:48.288Z,41.03
2022-08-04T12:34:04.880Z,40.98
2022-08-04T12:34:46.420Z,41.21
2022-08-04T12:36:10.338Z,41.69
2022-08-04T12:36:46.431Z,42.29
2022-08-04T12:37:46.419Z,42.84
2022-08-04T12:38:46.440Z,43.03
2022-08-04T12:40:29.370Z,42.96
2022-08-04T12:40:46.472Z,42.65
2022-08-04T12:41:46.446Z,42.48
2022-08-04T12:42:56.362Z,42.50
2022-08-04T12:43:46.433Z,42.50
2022-08-04T12:44:46.441Z,42.64
2022-08-04T12:45:48.650Z,42.86
2022-08-04T12:46:46.446Z,43.04
2022-08-04T12:47:46.442Z,43.21
2022-08-04T12:48:46.445Z,43.09
2022-08-04T12:49:47.374Z,42.70
2022-08-04T12:50:46.429Z,41.85
2022-08-04T12:52:07.690Z,41.44
2022-08-04T12:53:02.124Z,41.00